Time;durP1;ratioP1;P1;durP2;ratioP2;P2;SDS_P1;SDS_P2;PMS_P1;PMS_P2;Temp;Humidity;BMP_temperature;BMP_pressure;BME280_temperature;BME280_humidity;BME280_pressure;Samples;Min_cycle;Max_cycle;Signal;HPM_P1;HPM_P2
2021/03/29 00:00:30;;;;;;;11.48;2.78;;;8.10;96.70;;;;;;5109532;28;20130;-61
2021/03/29 00:03:16;;;;;;;13.55;3.20;;;8.00;97.00;;;;;;5109144;28;20035;-61
2021/03/29 00:06:03;;;;;;;15.52;3.72;;;8.00;97.00;;;;;;5094885;28;20929;-61
2021/03/29 00:08:49;;;;;;;17.48;4.03;;;8.00;96.60;;;;;;5110384;28;20106;-61
2021/03/29 00:11:38;;;;;;;17.67;3.45;;;8.00;96.60;;;;;;5109371;27;20249;-60
2021/03/29 00:14:24;;;;;;;11.13;3.28;;;8.00;97.10;;;;;;5083036;28;20035;-61
2021/03/29 00:17:15;;;;;;;15.30;3.50;;;7.90;97.40;;;;;;5096884;28;20630;-59
2021/03/29 00:20:08;;;;;;;20.98;4.38;;;7.90;97.40;;;;;;5095527;28;20043;-60
2021/03/29 00:22:59;;;;;;;13.88;2.95;;;7.90;97.90;;;;;;5080592;28;20050;-60
2021/03/29 00:25:45;;;;;;;16.58;4.47;;;7.80;97.30;;;;;;5096550;28;20103;-60
2021/03/29 00:28:31;;;;;;;12.13;3.55;;;7.90;97.60;;;;;;5092214;28;20816;-58
2021/03/29 00:31:17;;;;;;;13.07;3.00;;;7.80;97.20;;;;;;5095841;28;20123;-60
2021/03/29 00:34:06;;;;;;;16.60;4.30;;;7.90;97.70;;;;;;5096619;28;20042;-58
2021/03/29 00:36:53;;;;;;;17.70;3.70;;;7.90;97.00;;;;;;5095221;28;20042;-60
2021/03/29 00:39:40;;;;;;;15.60;3.97;;;7.90;97.10;;;;;;5096883;28;20038;-60
2021/03/29 00:42:26;;;;;;;;;;;8.00;96.40;;;;;;5096882;28;20115;-59
2021/03/29 00:45:16;;;;;;;23.33;4.20;;;8.10;96.10;;;;;;5095804;28;19918;-60
2021/03/29 00:48:03;;;;;;;14.30;3.42;;;8.10;96.10;;;;;;5094760;22;20051;-59
2021/03/29 00:50:59;;;;;;;14.50;3.78;;;8.10;96.80;;;;;;5095136;28;20410;-58
2021/03/29 00:53:47;;;;;;;12.43;3.20;;;8.10;96.70;;;;;;5096230;28;20077;-56
2021/03/29 00:56:35;;;;;;;16.83;3.55;;;8.10;96.00;;;;;;5095857;28;20023;-57
2021/03/29 00:59:22;;;;;;;10.93;3.05;;;8.20;96.20;;;;;;5095885;28;20027;-59
2021/03/29 01:02:09;;;;;;;18.77;3.58;;;8.20;96.40;;;;;;5095119;28;20028;-60
2021/03/29 01:04:55;;;;;;;13.30;3.63;;;8.20;96.20;;;;;;5095550;28;20032;-60
2021/03/29 01:07:44;;;;;;;14.80;4.10;;;8.20;96.10;;;;;;5095347;28;20544;-60
2021/03/29 01:10:29;;;;;;;15.43;3.85;;;8.20;96.70;;;;;;5096239;28;20039;-60
2021/03/29 01:13:18;;;;;;;14.32;4.00;;;8.20;95.70;;;;;;5087983;28;20423;-60
2021/03/29 01:16:05;;;;;;;18.38;4.47;;;8.20;95.70;;;;;;5094780;28;20459;-59
2021/03/29 01:18:55;;;;;;;12.02;3.25;;;8.20;96.10;;;;;;5095626;28;20036;-59
2021/03/29 01:22:07;;;;;;;12.15;3.65;;;8.20;96.10;;;;;;5094405;28;20138;-59
2021/03/29 01:24:56;;;;;;;12.65;3.90;;;8.20;96.00;;;;;;5082268;28;20063;-59
2021/03/29 01:27:48;;;;;;;15.88;4.10;;;8.20;96.20;;;;;;5093817;28;20047;-60
2021/03/29 01:30:36;;;;;;;17.92;4.13;;;8.30;95.40;;;;;;5094638;28;20026;-59
2021/03/29 01:33:24;;;;;;;19.23;4.18;;;8.30;96.10;;;;;;5079491;28;20035;-59
2021/03/29 01:36:11;;;;;;;16.15;4.68;;;8.30;95.60;;;;;;5094227;28;20036;-60
2021/03/29 01:38:58;;;;;;;19.88;3.72;;;8.30;95.30;;;;;;5094439;28;20031;-58
2021/03/29 01:41:45;;;;;;;12.52;4.07;;;8.30;95.30;;;;;;5093757;28;20050;-59
2021/03/29 01:44:31;;;;;;;12.45;4.38;;;8.30;95.70;;;;;;5094807;28;20028;-58
2021/03/29 01:47:17;;;;;;;13.60;4.00;;;8.30;95.20;;;;;;5094150;28;20032;-59
2021/03/29 01:50:05;;;;;;;11.10;3.72;;;8.40;95.30;;;;;;5094829;28;20040;-60
2021/03/29 01:52:54;;;;;;;14.38;4.50;;;8.40;95.30;;;;;;5094124;28;20035;-58
2021/03/29 01:55:41;;;;;;;13.00;4.05;;;8.40;95.20;;;;;;5094112;28;20035;-60
2021/03/29 01:58:28;;;;;;;21.98;4.80;;;8.40;95.40;;;;;;5093439;28;20075;-57
2021/03/29 02:01:14;;;;;;;12.43;3.78;;;8.40;95.20;;;;;;5094726;28;20050;-54
2021/03/29 02:04:00;;;;;;;14.23;4.10;;;8.40;95.10;;;;;;5093627;28;20086;-60
2021/03/29 02:06:46;;;;;;;10.80;3.72;;;8.40;95.70;;;;;;5093288;28;20043;-52
2021/03/29 02:09:34;;;;;;;24.13;4.88;;;8.40;95.30;;;;;;5093596;28;20035;-58
2021/03/29 02:12:22;;;;;;;16.98;5.43;;;8.40;94.90;;;;;;5094137;28;20714;-57
2021/03/29 02:15:10;;;;;;;16.50;4.10;;;8.50;94.10;;;;;;5092369;28;20035;-55
2021/03/29 02:17:58;;;;;;;15.85;4.20;;;8.50;95.20;;;;;;5093789;28;20038;-59
2021/03/29 02:20:45;;;;;;;24.20;4.50;;;8.50;94.70;;;;;;5094209;28;20139;-58
2021/03/29 02:23:32;;;;;;;20.30;4.60;;;8.50;94.50;;;;;;5093849;28;20350;-58
2021/03/29 02:26:20;;;;;;;18.25;4.18;;;8.40;95.10;;;;;;5095137;28;20106;-58
2021/03/29 02:29:07;;;;;;;14.55;4.30;;;8.40;95.00;;;;;;5094143;28;20041;-59
2021/03/29 02:31:55;;;;;;;9.05;3.60;;;8.40;94.80;;;;;;5093111;28;20084;-57
2021/03/29 02:34:41;;;;;;;14.63;4.22;;;8.40;95.00;;;;;;5059863;28;20492;-59
2021/03/29 02:37:27;;;;;;;14.98;4.10;;;8.40;94.60;;;;;;5073438;28;20334;-58
2021/03/29 02:40:15;;;;;;;19.17;4.53;;;8.40;94.50;;;;;;5072558;28;20584;-58
2021/03/29 02:43:03;;;;;;;26.05;4.38;;;8.30;94.60;;;;;;5078075;28;20675;-57
2021/03/29 02:45:59;;;;;;;16.83;3.42;;;8.30;94.80;;;;;;5094616;28;20047;-56
2021/03/29 02:48:45;;;;;;;16.75;3.92;;;8.30;95.10;;;;;;5093428;28;20709;-59
2021/03/29 02:51:40;;;;;;;13.75;3.65;;;8.30;95.10;;;;;;5077679;28;20943;-59
2021/03/29 02:54:26;;;;;;;21.08;4.72;;;8.20;96.30;;;;;;5094553;28;20039;-54
2021/03/29 02:57:14;;;;;;;16.15;4.75;;;8.10;95.80;;;;;;5093901;28;20031;-58
2021/03/29 03:00:00;;;;;;;28.73;4.72;;;8.10;96.50;;;;;;5093213;28;20108;-58
2021/03/29 03:02:47;;;;;;;16.08;3.80;;;8.10;95.70;;;;;;5094170;28;20038;-58
2021/03/29 03:05:35;;;;;;;;;;;8.10;96.00;;;;;;5093981;28;20586;-57
2021/03/29 03:08:21;;;;;;;11.57;4.03;;;8.20;95.60;;;;;;5093723;28;20804;-56
2021/03/29 03:11:12;;;;;;;18.80;3.47;;;8.10;96.30;;;;;;5093337;28;20056;-61
2021/03/29 03:13:59;;;;;;;13.77;3.30;;;8.10;96.20;;;;;;5094544;28;20035;-57
2021/03/29 03:16:45;;;;;;;;;;;8.10;95.60;;;;;;5095332;28;20065;-56
2021/03/29 03:19:31;;;;;;;16.98;4.13;;;8.20;95.50;;;;;;5081416;28;20511;-55
2021/03/29 03:22:17;;;;;;;16.50;3.72;;;8.20;95.40;;;;;;5093418;28;20031;-57
2021/03/29 03:25:17;;;;;;;20.25;4.00;;;8.10;95.50;;;;;;5094666;28;20068;-59
2021/03/29 03:28:08;;;;;;;13.95;3.72;;;8.10;95.10;;;;;;5093018;28;20107;-56
2021/03/29 03:30:57;;;;;;;15.38;3.28;;;8.10;95.70;;;;;;5093448;28;20028;-56
2021/03/29 03:33:43;;;;;;;11.95;3.33;;;8.10;95.60;;;;;;5092219;28;20116;-54
2021/03/29 03:36:32;;;;;;;14.02;3.60;;;8.10;95.30;;;;;;5091937;28;20039;-56
2021/03/29 03:39:18;;;;;;;14.68;4.40;;;8.10;95.40;;;;;;5091808;28;20063;-55
2021/03/29 03:42:06;;;;;;;8.73;3.00;;;8.00;95.60;;;;;;5092350;28;20120;-53
2021/03/29 03:44:53;;;;;;;23.67;4.35;;;8.00;95.90;;;;;;5093546;28;20669;-54
2021/03/29 03:47:42;;;;;;;14.25;3.78;;;8.00;95.50;;;;;;5073951;28;20031;-55
2021/03/29 03:50:28;;;;;;;11.85;3.50;;;7.90;95.80;;;;;;5074881;28;20039;-55
2021/03/29 03:53:16;;;;;;;25.03;4.10;;;7.90;95.40;;;;;;5075768;28;20024;-55
2021/03/29 03:56:03;;;;;;;15.43;3.35;;;7.90;95.60;;;;;;5075348;28;21003;-59
2021/03/29 03:58:53;;;;;;;17.27;3.33;;;7.90;95.60;;;;;;5074162;28;20492;-56
2021/03/29 04:02:01;;;;;;;11.55;3.53;;;7.90;95.30;;;;;;5074999;28;20032;-58
2021/03/29 04:04:47;;;;;;;10.25;3.25;;;7.90;95.00;;;;;;5074968;28;20181;-58
2021/03/29 04:07:33;;;;;;;13.70;3.28;;;7.90;95.40;;;;;;5074343;28;20547;-58
2021/03/29 04:10:21;;;;;;;18.42;4.05;;;7.80;95.10;;;;;;5075230;28;20028;-57
2021/03/29 04:13:11;;;;;;;12.50;3.65;;;7.80;95.60;;;;;;5096317;28;20040;-53
2021/03/29 04:16:04;;;;;;;10.45;3.67;;;7.80;95.30;;;;;;5096480;28;20595;-57
2021/03/29 04:18:50;;;;;;;12.98;3.05;;;7.90;94.90;;;;;;5080355;28;20698;-56
2021/03/29 04:21:36;;;;;;;12.48;3.05;;;7.90;95.40;;;;;;5093840;28;20738;-58
2021/03/29 04:24:22;;;;;;;15.10;3.13;;;7.90;95.10;;;;;;5094511;28;20035;-56
2021/03/29 04:27:08;;;;;;;13.25;3.58;;;7.90;95.30;;;;;;5095481;28;20027;-58
2021/03/29 04:29:54;;;;;;;22.63;3.75;;;7.90;95.10;;;;;;5096260;28;20019;-58
2021/03/29 04:32:40;;;;;;;16.90;4.00;;;7.90;95.70;;;;;;5089615;28;20031;-54
2021/03/29 04:35:26;;;;;;;14.63;3.27;;;7.90;95.00;;;;;;5096707;28;20027;-56
2021/03/29 04:38:12;;;;;;;10.30;3.42;;;7.90;95.00;;;;;;5096473;28;20039;-54
2021/03/29 04:40:58;;;;;;;11.40;3.38;;;7.90;95.50;;;;;;5095192;28;20036;-59
2021/03/29 04:43:44;;;;;;;13.10;4.18;;;7.90;95.60;;;;;;5094991;28;20395;-57
2021/03/29 04:46:29;;;;;;;11.75;3.08;;;7.80;95.70;;;;;;5087370;28;20027;-53
2021/03/29 04:49:16;;;;;;;15.13;3.97;;;7.80;96.00;;;;;;5093864;28;20032;-57
2021/03/29 04:52:03;;;;;;;17.97;4.20;;;7.80;95.60;;;;;;5094117;28;20118;-59
2021/03/29 04:54:49;;;;;;;17.10;3.63;;;7.80;96.10;;;;;;5093764;28;20035;-59
2021/03/29 04:57:35;;;;;;;12.67;3.83;;;7.80;96.00;;;;;;5094818;28;20027;-58
2021/03/29 05:00:21;;;;;;;15.30;3.53;;;7.90;95.90;;;;;;5094220;28;20629;-60
2021/03/29 05:03:07;;;;;;;14.07;3.22;;;7.80;96.10;;;;;;5094198;28;20039;-67
2021/03/29 05:05:53;;;;;;;14.38;4.38;;;7.80;95.90;;;;;;5093605;28;20097;-58
2021/03/29 05:08:39;;;;;;;12.07;3.10;;;7.80;96.30;;;;;;5098051;28;20090;-59
2021/03/29 05:11:07;;;;;;;;;;;7.80;95.90;;;;;;5103856;28;20124;-60
2021/03/29 05:13:33;;;;;;;13.43;2.97;;;7.80;96.40;;;;;;5066419;28;20016;-59
2021/03/29 05:15:58;;;;;;;;;;;7.80;96.00;;;;;;5065116;28;20082;-59
2021/03/29 05:18:24;;;;;;;11.40;3.28;;;7.90;95.80;;;;;;5050084;22;19929;-59
2021/03/29 05:20:49;;;;;;;;;;;8.00;96.00;;;;;;5016490;28;20042;-55
2021/03/29 05:23:15;;;;;;;10.45;3.22;;;8.00;95.80;;;;;;5025498;28;19917;-58
2021/03/29 05:25:40;;;;;;;;;;;8.00;96.20;;;;;;5026722;28;20081;-62
2021/03/29 05:28:06;;;;;;;9.52;2.33;;;8.00;96.40;;;;;;5024968;28;20010;-59
2021/03/29 05:30:31;;;;;;;;;;;8.00;96.10;;;;;;5024902;28;20064;-62
2021/03/29 05:32:57;;;;;;;18.15;3.15;;;8.10;96.00;;;;;;5025637;28;20026;-59
2021/03/29 05:35:23;;;;;;;;;;;8.20;96.80;;;;;;5026568;28;20425;-60
2021/03/29 05:37:48;;;;;;;11.63;2.35;;;8.50;95.60;;;;;;5025327;28;19917;-64
2021/03/29 05:40:16;;;;;;;;;;;8.60;95.30;;;;;;5026710;28;20040;-54
2021/03/29 05:43:01;;;;;;;11.32;2.75;;;8.80;95.40;;;;;;5019996;28;20029;-59
2021/03/29 05:45:30;;;;;;;;;;;9.40;94.00;;;;;;5019900;28;20076;-61
2021/03/29 05:48:08;;;;;;;12.48;3.28;;;9.50;93.80;;;;;;5025146;28;20324;-56
2021/03/29 05:50:53;;;;;;;12.05;3.00;;;9.30;94.10;;;;;;5025906;28;20498;-57
2021/03/29 05:53:18;;;;;;;;;;;9.30;93.80;;;;;;5026502;23;20112;-60
2021/03/29 05:55:46;;;;;;;13.63;3.20;;;9.20;94.10;;;;;;5025120;28;19924;-58
2021/03/29 06:00:55;;;;;;;13.05;2.83;;;9.10;93.80;;;;;;5025520;28;20033;-73
2021/03/29 06:03:29;;;;;;;15.13;4.78;;;9.10;94.10;;;;;;5008210;28;20041;-72
2021/03/29 06:06:19;;;;;;;13.75;3.60;;;9.10;93.90;;;;;;5009144;28;20084;-68
2021/03/29 06:08:54;;;;;;;12.82;2.90;;;9.20;94.20;;;;;;5000998;28;20552;-72
2021/03/29 06:11:32;;;;;;;11.02;3.03;;;9.30;93.80;;;;;;5025832;28;20041;-69
2021/03/29 06:14:18;;;;;;;20.88;3.72;;;9.50;93.90;;;;;;5014996;28;20153;-70
2021/03/29 06:17:01;;;;;;;12.93;2.80;;;9.60;93.40;;;;;;5009110;28;20044;-71
2021/03/29 06:19:49;;;;;;;11.43;3.38;;;10.20;92.30;;;;;;5009053;28;20037;-70
2021/03/29 06:22:15;;;;;;;13.23;2.63;;;10.70;91.90;;;;;;5008174;28;20107;-69
2021/03/29 06:24:51;;;;;;;;;;;11.20;90.50;;;;;;5009020;28;20444;-69
2021/03/29 06:27:17;;;;;;;17.70;3.40;;;11.00;90.90;;;;;;5026552;28;19963;-69
2021/03/29 06:29:43;;;;;;;10.27;2.47;;;10.70;91.20;;;;;;5008906;28;20025;-72
2021/03/29 06:32:09;;;;;;;;;;;10.50;91.90;;;;;;5012285;28;20367;-69
2021/03/29 06:34:35;;;;;;;14.00;2.55;;;10.20;91.90;;;;;;5008994;28;19988;-72
2021/03/29 06:37:08;;;;;;;;;;;10.10;92.10;;;;;;5026535;28;20112;-70
2021/03/29 06:39:41;;;;;;;13.60;2.63;;;10.00;92.70;;;;;;5008040;28;19951;-72
2021/03/29 06:42:08;;;;;;;11.80;2.60;;;9.90;92.40;;;;;;5007996;28;20395;-68
2021/03/29 06:44:35;;;;;;;7.95;2.78;;;9.90;92.40;;;;;;5008813;28;20061;-69
2021/03/29 06:47:14;;;;;;;20.10;3.28;;;9.90;92.30;;;;;;5026578;28;20521;-69
2021/03/29 06:49:49;;;;;;;9.65;2.08;;;9.80;92.70;;;;;;5008811;28;20048;-69
2021/03/29 06:52:21;;;;;;;8.90;2.60;;;9.80;92.60;;;;;;5008094;28;20139;-71
2021/03/29 06:54:47;;;;;;;13.20;3.28;;;9.90;92.40;;;;;;5009059;28;20044;-72
2021/03/29 06:57:13;;;;;;;12.50;2.80;;;9.80;92.30;;;;;;5008583;28;20033;-68
2021/03/29 06:59:39;;;;;;;;;;;9.80;92.40;;;;;;5008948;28;20048;-68
2021/03/29 07:02:07;;;;;;;12.90;3.08;;;9.90;92.10;;;;;;4999855;28;19945;-73
2021/03/29 07:04:35;;;;;;;14.40;2.92;;;9.90;92.20;;;;;;5008217;28;20041;-67
2021/03/29 07:07:05;;;;;;;10.40;2.22;;;9.90;92.00;;;;;;5006100;28;20025;-69
2021/03/29 07:09:36;;;;;;;5.70;2.22;;;10.00;92.00;;;;;;5007324;28;20021;-71
2021/03/29 07:12:05;;;;;;;9.55;2.15;;;10.00;92.40;;;;;;5010237;28;20029;-72
2021/03/29 07:14:32;;;;;;;8.90;2.28;;;10.00;92.50;;;;;;5010070;28;20060;-70
2021/03/29 07:16:59;;;;;;;21.05;2.75;;;10.10;92.20;;;;;;5011630;28;20041;-70
2021/03/29 07:19:26;;;;;;;15.20;2.55;;;10.10;91.70;;;;;;5009820;28;20060;-72
2021/03/29 07:21:52;;;;;;;14.13;3.00;;;10.20;91.70;;;;;;5008283;28;20072;-71
2021/03/29 07:24:19;;;;;;;;;;;10.20;91.30;;;;;;5010544;28;20069;-70
2021/03/29 07:26:57;;;;;;;7.05;2.05;;;10.20;91.00;;;;;;5012160;28;19916;-69
2021/03/29 07:29:32;;;;;;;7.00;2.90;;;10.30;92.00;;;;;;5012480;28;20029;-71
2021/03/29 07:32:24;;;;;;;10.82;3.40;;;10.40;91.80;;;;;;5011422;28;20025;-72
2021/03/29 07:34:52;;;;;;;9.40;2.75;;;10.50;91.00;;;;;;5007301;28;20040;-72
2021/03/29 07:37:47;;;;;;;6.75;2.10;;;10.60;90.50;;;;;;5011318;28;20025;-70
2021/03/29 07:40:18;;;;;;;13.98;2.25;;;10.70;90.20;;;;;;5012220;28;20251;-68
2021/03/29 07:42:44;;;;;;;10.65;3.47;;;11.00;89.60;;;;;;5010259;28;20045;-70
2021/03/29 07:45:13;;;;;;;9.82;3.03;;;11.30;90.10;;;;;;5019216;28;20036;-72
2021/03/29 07:47:58;;;;;;;9.18;2.47;;;11.40;87.30;;;;;;5023206;28;20072;-74
2021/03/29 07:50:47;;;;;;;9.27;2.25;;;11.50;88.90;;;;;;5010551;28;20087;-71
2021/03/29 07:54:01;;;;;;;7.97;2.60;;;11.60;88.10;;;;;;5009754;28;20107;-74
2021/03/29 07:56:30;;;;;;;8.13;2.30;;;11.60;86.70;;;;;;5004773;28;20440;-72
2021/03/29 07:58:56;;;;;;;10.20;2.47;;;11.70;87.30;;;;;;5011226;28;20038;-73
2021/03/29 08:01:22;;;;;;;14.57;2.78;;;11.80;85.20;;;;;;5007546;28;20536;-70
2021/03/29 08:03:50;;;;;;;;;;;12.20;84.60;;;;;;5011329;28;20049;-69
2021/03/29 08:06:39;;;;;;;10.40;2.92;;;12.70;82.80;;;;;;5011418;28;19909;-71
2021/03/29 08:09:11;;;;;;;9.38;1.80;;;13.40;79.50;;;;;;5011372;28;20053;-69
2021/03/29 08:11:58;;;;;;;8.68;2.38;;;14.50;79.00;;;;;;5007741;28;20033;-72
2021/03/29 08:14:38;;;;;;;24.73;8.50;;;15.10;74.00;;;;;;5011233;28;20033;-70
2021/03/29 08:17:47;;;;;;;9.07;3.00;;;16.00;70.80;;;;;;5010353;28;20232;-70
2021/03/29 08:20:33;;;;;;;7.35;2.20;;;16.60;64.20;;;;;;5010260;28;20061;-71
2021/03/29 08:23:30;;;;;;;8.45;2.90;;;16.70;60.40;;;;;;5010049;28;20037;-73
2021/03/29 08:26:09;;;;;;;7.90;2.15;;;16.30;61.20;;;;;;5010575;28;20057;-70
2021/03/29 08:29:06;;;;;;;11.43;2.45;;;16.10;64.30;;;;;;5010653;28;20086;-70
2021/03/29 08:32:05;;;;;;;9.57;2.30;;;15.80;64.30;;;;;;5027300;28;20247;-72
2021/03/29 08:34:55;;;;;;;35.85;4.63;;;15.70;59.60;;;;;;5011182;28;20037;-70
2021/03/29 08:37:21;;;;;;;10.35;2.25;;;15.80;63.10;;;;;;5010873;28;20031;-72
2021/03/29 08:39:48;;;;;;;;;;;15.50;63.90;;;;;;5011079;28;20037;-73
2021/03/29 08:42:17;;;;;;;15.32;6.28;;;15.00;67.40;;;;;;5011198;28;19924;-69
2021/03/29 08:44:45;;;;;;;14.13;2.25;;;14.70;68.70;;;;;;5009279;28;20041;-71
2021/03/29 08:47:19;;;;;;;12.50;4.05;;;14.30;69.50;;;;;;5011674;28;20040;-68
2021/03/29 08:49:49;;;;;;;11.15;3.85;;;14.10;70.30;;;;;;5011989;28;20045;-70
2021/03/29 08:52:15;;;;;;;13.27;2.85;;;14.10;69.10;;;;;;5009646;28;20037;-72
2021/03/29 08:55:06;;;;;;;;;;;13.90;68.10;;;;;;5008594;28;20036;-69
2021/03/29 08:57:32;;;;;;;9.38;1.90;;;13.90;69.50;;;;;;5004521;28;19916;-68
2021/03/29 09:00:06;;;;;;;;;;;13.80;68.70;;;;;;5010461;28;20394;-71
2021/03/29 09:02:32;;;;;;;5.00;1.70;;;13.80;69.40;;;;;;5009763;28;19909;-70
2021/03/29 09:04:58;;;;;;;;;;;13.90;70.10;;;;;;5010879;28;20105;-71
2021/03/29 09:07:33;;;;;;;14.17;2.10;;;14.10;71.20;;;;;;5007284;28;20328;-71
2021/03/29 09:10:00;;;;;;;10.20;2.45;;;14.20;69.50;;;;;;5007740;28;20079;-66
2021/03/29 09:12:31;;;;;;;13.32;4.50;;;14.20;69.30;;;;;;5011841;28;20079;-71
2021/03/29 09:14:58;;;;;;;12.65;2.47;;;14.30;67.80;;;;;;5006996;28;20037;-67
2021/03/29 09:17:32;;;;;;;9.52;1.88;;;14.50;68.20;;;;;;5010213;28;20041;-72
2021/03/29 09:19:58;;;;;;;10.38;2.30;;;14.70;68.70;;;;;;5009571;28;20573;-72
2021/03/29 09:22:43;;;;;;;14.95;2.30;;;14.90;65.60;;;;;;5008774;28;20029;-72
2021/03/29 09:25:10;;;;;;;12.40;2.00;;;15.00;65.90;;;;;;5010370;28;20128;-69
2021/03/29 09:27:42;;;;;;;9.95;2.47;;;15.00;63.90;;;;;;5028485;28;20451;-70
2021/03/29 09:30:11;;;;;;;8.35;2.80;;;15.10;67.60;;;;;;5027869;28;20075;-69
2021/03/29 09:32:57;;;;;;;6.97;2.05;;;15.10;66.70;;;;;;5010245;28;20121;-72
2021/03/29 09:35:23;;;;;;;13.05;2.50;;;15.00;65.70;;;;;;5012938;28;20060;-70
2021/03/29 09:37:49;;;;;;;7.95;1.80;;;14.90;66.80;;;;;;5012838;28;20053;-68
2021/03/29 09:40:16;;;;;;;;;;;14.80;67.90;;;;;;5019419;28;20056;-69
2021/03/29 09:42:44;;;;;;;5.63;2.00;;;14.70;63.70;;;;;;5026604;28;19913;-68
2021/03/29 09:45:21;;;;;;;9.65;2.00;;;14.70;65.40;;;;;;5010240;28;20053;-68
2021/03/29 09:47:58;;;;;;;13.27;4.60;;;14.90;65.80;;;;;;5009483;28;20037;-71
2021/03/29 09:50:51;;;;;;;9.13;2.25;;;14.90;64.50;;;;;;5025073;28;20034;-69
2021/03/29 09:53:20;;;;;;;10.30;1.67;;;14.90;64.10;;;;;;5009221;28;20042;-70
2021/03/29 09:55:57;;;;;;;6.72;1.90;;;14.80;62.50;;;;;;5009636;28;20056;-72
2021/03/29 09:58:47;;;;;;;8.95;1.60;;;14.70;60.40;;;;;;5007577;28;20129;-72
2021/03/29 10:01:19;;;;;;;9.90;1.88;;;14.70;62.20;;;;;;5020360;28;20112;-70
2021/03/29 10:04:04;;;;;;;5.90;1.85;;;14.80;63.70;;;;;;5009513;28;20033;-73
2021/03/29 10:06:30;;;;;;;4.65;1.70;;;14.80;62.20;;;;;;5006154;28;20034;-72
2021/03/29 10:09:01;;;;;;;;;;;14.90;63.90;;;;;;5006722;28;20030;-69
2021/03/29 10:11:28;;;;;;;7.22;2.30;;;15.00;65.30;;;;;;5008146;28;19923;-71
2021/03/29 10:14:06;;;;;;;6.95;2.28;;;15.10;63.30;;;;;;5010148;28;20485;-71
2021/03/29 10:16:32;;;;;;;7.93;1.80;;;15.30;62.20;;;;;;5001313;28;20034;-70
2021/03/29 10:19:28;;;;;;;7.40;1.75;;;15.40;63.90;;;;;;5007677;28;20140;-68
2021/03/29 10:22:18;;;;;;;8.65;2.15;;;15.50;61.70;;;;;;5017896;28;20048;-70
2021/03/29 10:25:22;;;;;;;10.85;1.90;;;15.70;62.40;;;;;;4996545;28;20670;-68
2021/03/29 10:27:51;;;;;;;9.65;1.83;;;15.70;61.10;;;;;;4998968;28;20029;-73
2021/03/29 10:30:19;;;;;;;11.57;3.40;;;15.80;58.60;;;;;;5006175;28;20587;-71
2021/03/29 10:32:50;;;;;;;4.80;1.70;;;15.90;62.00;;;;;;5022309;28;20025;-69
2021/03/29 10:35:16;;;;;;;10.02;2.55;;;15.90;59.40;;;;;;5009461;28;20140;-69
2021/03/29 10:37:42;;;;;;;7.85;1.80;;;16.00;58.10;;;;;;5004168;28;20037;-69
2021/03/29 10:40:09;;;;;;;5.75;1.65;;;15.90;58.70;;;;;;5004314;28;20037;-73
2021/03/29 10:42:37;;;;;;;15.85;1.92;;;16.00;57.90;;;;;;5001020;28;20044;-72
2021/03/29 10:45:07;;;;;;;5.75;1.55;;;16.00;58.00;;;;;;5004345;28;20041;-71
2021/03/29 10:47:35;;;;;;;6.70;1.52;;;16.00;58.20;;;;;;4999255;28;20036;-72
2021/03/29 10:50:01;;;;;;;9.48;1.75;;;16.00;56.40;;;;;;5006301;28;20118;-73
2021/03/29 10:52:27;;;;;;;;;;;15.80;56.70;;;;;;5016108;28;20057;-70
2021/03/29 10:54:53;;;;;;;7.78;2.50;;;15.60;55.40;;;;;;5006472;28;19913;-69
2021/03/29 10:57:18;;;;;;;;;;;15.40;56.40;;;;;;5006777;28;20045;-68
2021/03/29 10:59:44;;;;;;;5.05;1.55;;;15.20;54.10;;;;;;5005909;28;20297;-70
2021/03/29 11:02:10;;;;;;;;;;;15.20;57.40;;;;;;5006907;28;20112;-69
2021/03/29 11:04:38;;;;;;;10.85;1.70;;;15.50;55.50;;;;;;5003279;28;20049;-71
2021/03/29 11:07:04;;;;;;;6.28;1.35;;;15.60;56.40;;;;;;5022769;28;20025;-70
2021/03/29 11:09:30;;;;;;;;;;;15.80;55.50;;;;;;4996258;28;20125;-71
2021/03/29 11:11:58;;;;;;;6.95;2.55;;;15.90;56.40;;;;;;4999078;28;19915;-70
2021/03/29 11:14:24;;;;;;;7.45;2.97;;;15.80;55.50;;;;;;5027420;28;20045;-69
2021/03/29 11:16:53;;;;;;;;;;;15.70;55.00;;;;;;5023785;28;20045;-71
2021/03/29 11:19:20;;;;;;;6.38;1.88;;;15.70;52.20;;;;;;5008447;28;20027;-69
2021/03/29 11:21:48;;;;;;;6.15;1.33;;;15.80;53.00;;;;;;5003827;28;20595;-69
2021/03/29 11:24:14;;;;;;;5.32;1.30;;;15.90;52.80;;;;;;5020760;28;20057;-71
2021/03/29 11:26:40;;;;;;;;;;;16.10;52.60;;;;;;5024225;28;20033;-72
2021/03/29 11:29:07;;;;;;;9.73;1.30;;;16.20;51.70;;;;;;5010819;28;19916;-72
2021/03/29 11:31:36;;;;;;;4.65;1.05;;;16.20;51.70;;;;;;4998408;28;20026;-68
2021/03/29 11:34:02;;;;;;;3.95;1.30;;;16.30;50.20;;;;;;5006813;28;20541;-72
2021/03/29 11:36:29;;;;;;;8.60;1.80;;;16.30;50.90;;;;;;5007927;28;20117;-71
2021/03/29 11:38:55;;;;;;;6.82;1.30;;;16.40;48.30;;;;;;5017551;28;20489;-72
2021/03/29 11:41:20;;;;;;;;;;;16.50;48.90;;;;;;5007417;28;20037;-71
2021/03/29 11:43:47;;;;;;;3.65;1.17;;;16.50;48.00;;;;;;5007372;28;19913;-72
2021/03/29 11:46:13;;;;;;;5.38;1.30;;;16.50;47.40;;;;;;5007933;28;20080;-72
2021/03/29 11:48:38;;;;;;;;;;;16.70;49.70;;;;;;5026411;28;20030;-72
2021/03/29 11:51:05;;;;;;;6.85;1.52;;;16.80;48.60;;;;;;5005721;28;19941;-70
2021/03/29 11:53:31;;;;;;;9.43;1.40;;;16.80;48.20;;;;;;5023321;28;20044;-72
2021/03/29 11:55:57;;;;;;;;;;;16.90;47.80;;;;;;5023936;28;20041;-70
2021/03/29 11:58:23;;;;;;;7.87;1.27;;;16.90;47.20;;;;;;5015794;28;19921;-72
2021/03/29 12:01:15;;;;;;;;;;;16.90;46.50;;;;;;5008041;28;20441;-71
2021/03/29 12:06:11;;;;;;;;;;;17.00;45.00;;;;;;5025678;28;20752;-71
2021/03/29 12:08:44;;;;;;;4.30;1.42;;;17.00;45.80;;;;;;5007729;28;19909;-70
2021/03/29 12:13:57;;;;;;;6.60;1.40;;;16.90;43.40;;;;;;5032413;28;20452;-70
2021/03/29 12:16:26;;;;;;;3.33;1.25;;;16.90;42.80;;;;;;5012759;28;20541;-71
2021/03/29 12:18:55;;;;;;;5.63;2.10;;;16.90;44.40;;;;;;5012602;28;20041;-69
2021/03/29 12:21:24;;;;;;;5.07;1.60;;;17.00;45.90;;;;;;5012049;28;20033;-69
2021/03/29 12:23:53;;;;;;;3.03;1.50;;;17.00;44.20;;;;;;5011695;28;20037;-72
2021/03/29 12:26:22;;;;;;;5.45;1.27;;;17.00;43.60;;;;;;5005182;28;20033;-68
2021/03/29 12:28:51;;;;;;;4.15;1.17;;;17.10;46.30;;;;;;5017979;28;20045;-69
2021/03/29 12:31:17;;;;;;;6.90;1.45;;;17.00;44.30;;;;;;5007969;28;20037;-71
2021/03/29 12:33:43;;;;;;;7.85;1.40;;;17.00;44.40;;;;;;5009227;28;20040;-71
2021/03/29 12:36:12;;;;;;;3.08;1.20;;;17.00;44.70;;;;;;5010660;28;20033;-73
2021/03/29 12:38:42;;;;;;;7.05;2.25;;;17.00;43.30;;;;;;5028663;28;20036;-71
2021/03/29 12:41:10;;;;;;;12.57;5.70;;;17.00;44.20;;;;;;5010887;28;20048;-71
2021/03/29 12:44:00;;;;;;;7.65;4.03;;;17.10;44.10;;;;;;5007558;28;20033;-70
2021/03/29 12:46:26;;;;;;;10.13;1.60;;;17.20;43.70;;;;;;5009011;28;20021;-71
2021/03/29 12:48:52;;;;;;;;;;;17.30;41.40;;;;;;5010055;28;20116;-70
2021/03/29 12:51:18;;;;;;;3.78;1.15;;;17.30;43.70;;;;;;5010133;28;19920;-67
2021/03/29 12:53:45;;;;;;;;;;;17.40;45.00;;;;;;5011239;28;20048;-71
2021/03/29 12:56:11;;;;;;;3.92;1.02;;;17.30;43.40;;;;;;5028577;28;20012;-71
2021/03/29 12:58:38;;;;;;;4.43;1.05;;;17.30;41.20;;;;;;5011250;28;20041;-70
2021/03/29 13:01:08;;;;;;;6.60;1.70;;;17.30;40.80;;;;;;5011000;28;20306;-71
2021/03/29 13:03:46;;;;;;;5.85;1.38;;;17.30;41.70;;;;;;5009884;28;20044;-69
2021/03/29 13:08:42;;;;;;;7.45;1.95;;;17.30;43.00;;;;;;5027755;28;20025;-68
2021/03/29 13:11:44;;;;;;;7.03;1.27;;;17.40;42.50;;;;;;5010640;28;20083;-67
2021/03/29 13:14:04;;;;;;;6.53;1.27;;;17.40;41.20;;;;;;5031354;28;20123;-70
2021/03/29 13:16:30;;;;;;;5.15;1.50;;;17.40;44.40;;;;;;5028247;28;20044;-70
2021/03/29 13:18:55;;;;;;;;;;;17.30;42.60;;;;;;5010994;28;20037;-68
2021/03/29 13:21:22;;;;;;;6.13;1.67;;;17.20;42.50;;;;;;5027244;28;20370;-68
2021/03/29 13:23:49;;;;;;;4.85;1.27;;;17.10;43.10;;;;;;5021339;28;20124;-69
2021/03/29 13:26:19;;;;;;;7.22;1.35;;;17.10;42.90;;;;;;5026729;28;20056;-72
2021/03/29 13:28:46;;;;;;;5.28;1.83;;;17.10;45.00;;;;;;5026436;28;20564;-72
2021/03/29 13:31:12;;;;;;;8.02;1.27;;;17.20;43.60;;;;;;5026898;28;20033;-71
2021/03/29 13:33:38;;;;;;;;;;;17.30;44.10;;;;;;5026172;28;20037;-68
2021/03/29 13:36:05;;;;;;;10.43;1.50;;;17.20;42.30;;;;;;5026943;28;19948;-71
2021/03/29 13:38:31;;;;;;;9.95;1.55;;;17.00;43.40;;;;;;5026618;28;20515;-72
2021/03/29 13:40:57;;;;;;;;;;;17.00;43.90;;;;;;5027524;28;20048;-68
2021/03/29 13:43:23;;;;;;;8.30;1.30;;;16.90;42.80;;;;;;5023390;28;19921;-69
2021/03/29 13:45:49;;;;;;;;;;;17.00;43.80;;;;;;5029657;28;20034;-70
2021/03/29 13:48:15;;;;;;;13.00;3.60;;;17.10;45.20;;;;;;5010416;28;19943;-71
2021/03/29 13:50:40;;;;;;;;;;;17.10;43.90;;;;;;5010741;28;20471;-68
2021/03/29 13:53:10;;;;;;;5.05;1.60;;;17.00;42.40;;;;;;5024002;28;19967;-69
2021/03/29 13:55:36;;;;;;;7.00;1.30;;;17.00;44.50;;;;;;5026469;28;20033;-69
2021/03/29 13:58:02;;;;;;;;;;;17.10;43.40;;;;;;5026582;28;20033;-72
2021/03/29 14:00:28;;;;;;;6.90;2.00;;;17.00;43.90;;;;;;5026595;28;19920;-74